Time;durP1;ratioP1;P1;durP2;ratioP2;P2;SDS_P1;SDS_P2;PMS_P1;PMS_P2;Temp;Humidity;BMP_temperature;BMP_pressure;BME280_temperature;BME280_humidity;BME280_pressure;Samples;Min_cycle;Max_cycle;Signal;HPM_P1;HPM_P2
2023/05/14 00:02:25;;;;;;;18.63;15.95;;;10.90;99.90;;;;;;5074239;28;20463;-66
2023/05/14 00:04:51;;;;;;;22.13;15.60;;;10.70;99.90;;;;;;5072948;28;20032;-66
2023/05/14 00:07:17;;;;;;;22.95;16.13;;;10.70;99.90;;;;;;5072611;28;20021;-66
2023/05/14 00:09:42;;;;;;;24.00;17.70;;;10.60;99.90;;;;;;5073919;28;20369;-66
2023/05/14 00:12:08;;;;;;;20.98;17.48;;;10.70;99.90;;;;;;5073701;28;20032;-66
2023/05/14 00:14:34;;;;;;;22.63;17.45;;;10.50;99.90;;;;;;5074100;28;20365;-66
2023/05/14 00:17:00;;;;;;;20.65;17.27;;;10.40;99.90;;;;;;5073826;28;20036;-66
2023/05/14 00:19:26;;;;;;;20.60;17.13;;;10.40;99.90;;;;;;5073352;28;20508;-66
2023/05/14 00:21:51;;;;;;;23.00;18.60;;;10.40;99.90;;;;;;5073797;28;20028;-66
2023/05/14 00:24:17;;;;;;;23.90;18.83;;;10.40;99.90;;;;;;5073002;28;20048;-66
2023/05/14 00:26:43;;;;;;;24.30;17.95;;;10.30;99.90;;;;;;5073630;28;20047;-66
2023/05/14 00:29:08;;;;;;;27.17;18.98;;;10.30;99.90;;;;;;5073741;28;20047;-66
2023/05/14 00:31:34;;;;;;;22.60;18.20;;;10.30;99.90;;;;;;5073946;28;20103;-66
2023/05/14 00:34:00;;;;;;;20.65;17.88;;;10.20;99.90;;;;;;5073920;28;20082;-66
2023/05/14 00:36:25;;;;;;;25.52;17.30;;;10.10;99.90;;;;;;5073355;28;20039;-66
2023/05/14 00:38:51;;;;;;;25.45;18.80;;;10.00;99.90;;;;;;5073595;28;20021;-66
2023/05/14 00:41:16;;;;;;;21.50;18.10;;;10.00;99.90;;;;;;5073773;28;20032;-66
2023/05/14 00:43:42;;;;;;;23.00;18.58;;;9.90;99.90;;;;;;5073230;28;20025;-66
2023/05/14 00:46:08;;;;;;;21.83;17.33;;;9.90;99.90;;;;;;5073773;28;20027;-66
2023/05/14 00:48:34;;;;;;;22.33;17.55;;;9.80;99.90;;;;;;5073860;28;20033;-66
2023/05/14 00:51:00;;;;;;;26.05;19.35;;;9.80;99.90;;;;;;5073192;28;20474;-66
2023/05/14 00:53:25;;;;;;;23.48;18.98;;;9.70;99.90;;;;;;5073452;28;20027;-66
2023/05/14 00:55:51;;;;;;;22.48;19.00;;;9.70;99.90;;;;;;5073202;28;20378;-66
2023/05/14 00:58:18;;;;;;;29.98;20.95;;;9.70;99.90;;;;;;5073114;28;20025;-66
2023/05/14 01:00:43;;;;;;;24.27;20.65;;;9.60;99.90;;;;;;5071986;28;20074;-66
2023/05/14 01:03:09;;;;;;;28.60;21.45;;;9.60;99.90;;;;;;5073066;28;20028;-66
2023/05/14 01:06:14;;;;;;;23.25;19.60;;;9.60;99.90;;;;;;5072649;28;20028;-66
2023/05/14 01:11:42;;;;;;;23.88;18.65;;;9.50;99.90;;;;;;5111983;27;20384;-65
2023/05/14 01:14:20;;;;;;;22.33;18.85;;;9.50;99.90;;;;;;5111083;28;20071;-65
2023/05/14 01:16:49;;;;;;;23.80;19.40;;;9.40;99.90;;;;;;5111667;28;20028;-65
2023/05/14 01:19:26;;;;;;;26.75;21.30;;;9.30;99.90;;;;;;5110666;28;20031;-66
2023/05/14 01:21:51;;;;;;;28.98;21.17;;;9.30;99.90;;;;;;5110653;28;20030;-65
2023/05/14 01:24:17;;;;;;;27.27;21.05;;;9.30;99.90;;;;;;5111765;28;20027;-65
2023/05/14 01:26:42;;;;;;;25.60;21.25;;;9.40;99.90;;;;;;5111696;28;20027;-65
2023/05/14 01:29:16;;;;;;;25.38;20.85;;;9.30;99.90;;;;;;5111590;28;20016;-65
2023/05/14 01:31:42;;;;;;;;;;;9.20;99.90;;;;;;5112158;28;20107;-65
2023/05/14 01:34:10;;;;;;;25.83;19.88;;;9.20;99.90;;;;;;5111227;28;19929;-65
2023/05/14 01:36:37;;;;;;;26.30;19.85;;;9.20;99.90;;;;;;5111322;28;20538;-65
2023/05/14 01:39:03;;;;;;;23.83;19.60;;;9.10;99.90;;;;;;5111531;28;20024;-65
2023/05/14 01:41:30;;;;;;;23.70;19.42;;;9.20;99.90;;;;;;5111143;28;20039;-65
2023/05/14 01:43:56;;;;;;;27.08;20.50;;;9.20;99.90;;;;;;5110221;28;20031;-65
2023/05/14 01:46:23;;;;;;;23.10;18.90;;;9.20;99.90;;;;;;5111330;28;20031;-65
2023/05/14 01:48:49;;;;;;;26.02;20.00;;;9.20;99.90;;;;;;5111317;28;20342;-65
2023/05/14 01:51:15;;;;;;;22.42;18.33;;;9.20;99.90;;;;;;5110984;28;20034;-65
2023/05/14 01:53:40;;;;;;;26.08;19.17;;;9.20;99.90;;;;;;5110853;28;20110;-65
2023/05/14 01:56:06;;;;;;;22.25;18.55;;;9.20;99.90;;;;;;5111119;28;20028;-65
2023/05/14 01:58:32;;;;;;;23.00;18.63;;;9.30;99.90;;;;;;5110769;28;20028;-65
2023/05/14 02:00:57;;;;;;;20.98;17.30;;;9.20;99.90;;;;;;5110847;28;20035;-65
2023/05/14 02:03:23;;;;;;;21.77;17.27;;;9.30;99.90;;;;;;5110699;28;20111;-65
2023/05/14 02:05:48;;;;;;;23.58;18.67;;;9.20;99.90;;;;;;5110424;28;20393;-65
2023/05/14 02:08:14;;;;;;;24.40;17.73;;;9.20;99.90;;;;;;5111154;28;20047;-65
2023/05/14 02:10:40;;;;;;;22.55;17.98;;;9.20;99.90;;;;;;5109904;28;20043;-65
2023/05/14 02:13:05;;;;;;;23.25;16.83;;;9.20;99.90;;;;;;5110874;28;20039;-65
2023/05/14 02:15:31;;;;;;;20.50;16.88;;;8.60;99.90;;;;;;5110270;28;20019;-66
2023/05/14 02:17:56;;;;;;;21.63;16.90;;;9.10;99.90;;;;;;5110782;28;20020;-65
2023/05/14 02:20:22;;;;;;;23.52;17.08;;;9.10;99.90;;;;;;5110117;28;20024;-65
2023/05/14 02:22:47;;;;;;;20.60;17.30;;;9.10;99.90;;;;;;5096475;28;20052;-65
2023/05/14 02:25:13;;;;;;;21.90;17.10;;;9.10;99.90;;;;;;5096434;28;20036;-65
2023/05/14 02:27:39;;;;;;;20.95;16.75;;;9.10;99.90;;;;;;5096036;28;20074;-65
2023/05/14 02:30:05;;;;;;;21.48;18.08;;;9.00;99.90;;;;;;5096898;28;20028;-65
2023/05/14 02:32:30;;;;;;;22.58;18.00;;;8.50;99.90;;;;;;5096575;28;20485;-65
2023/05/14 02:34:56;;;;;;;20.33;17.40;;;8.60;99.90;;;;;;5095496;28;20028;-65
2023/05/14 02:37:21;;;;;;;19.88;17.05;;;8.90;99.90;;;;;;5096819;28;20045;-65
2023/05/14 02:39:47;;;;;;;22.45;18.45;;;8.90;99.90;;;;;;5096363;28;20035;-65
2023/05/14 02:42:13;;;;;;;22.67;18.17;;;8.80;99.90;;;;;;5096746;28;20024;-65
2023/05/14 02:44:39;;;;;;;22.40;18.88;;;8.80;99.90;;;;;;5096150;28;20088;-65
2023/05/14 02:47:05;;;;;;;21.83;18.70;;;8.80;99.90;;;;;;5096691;28;20031;-65
2023/05/14 02:49:30;;;;;;;23.55;18.60;;;8.60;99.90;;;;;;5096517;28;20062;-65
2023/05/14 02:51:56;;;;;;;19.70;17.15;;;8.70;99.90;;;;;;5096747;28;20047;-65
2023/05/14 02:54:22;;;;;;;25.17;19.23;;;8.70;99.90;;;;;;5096525;28;20033;-65
2023/05/14 02:56:47;;;;;;;23.50;18.80;;;8.60;99.90;;;;;;5096500;28;20428;-65
2023/05/14 02:59:13;;;;;;;28.65;22.58;;;8.60;99.90;;;;;;5095555;28;20036;-65
2023/05/14 03:01:38;;;;;;;25.67;19.90;;;8.60;99.90;;;;;;5096351;28;20028;-65
2023/05/14 03:04:04;;;;;;;25.38;20.27;;;8.50;99.90;;;;;;5095738;28;20055;-65
2023/05/14 03:06:30;;;;;;;24.67;18.90;;;8.50;99.90;;;;;;5095974;28;20129;-65
2023/05/14 03:08:55;;;;;;;27.27;20.95;;;8.50;99.90;;;;;;5095892;28;20024;-65
2023/05/14 03:11:21;;;;;;;30.02;22.95;;;8.40;99.90;;;;;;5096127;28;20024;-65
2023/05/14 03:13:46;;;;;;;28.73;21.27;;;8.40;99.90;;;;;;5096299;28;20031;-65
2023/05/14 03:16:12;;;;;;;29.08;21.50;;;8.40;99.90;;;;;;5095440;28;20097;-65
2023/05/14 03:18:38;;;;;;;26.50;20.77;;;8.30;99.90;;;;;;5095793;28;20458;-65
2023/05/14 03:21:03;;;;;;;25.05;20.27;;;8.30;99.90;;;;;;5095744;28;20108;-65
2023/05/14 03:23:30;;;;;;;27.98;22.42;;;8.50;99.90;;;;;;5095374;28;20462;-65
2023/05/14 03:25:56;;;;;;;27.60;21.20;;;8.20;99.90;;;;;;5095300;28;20508;-65
2023/05/14 03:28:22;;;;;;;28.30;20.73;;;8.20;99.90;;;;;;5095431;28;20061;-65
2023/05/14 03:30:47;;;;;;;25.83;21.17;;;8.20;99.90;;;;;;5095666;28;20032;-65
2023/05/14 03:33:13;;;;;;;26.63;21.50;;;8.20;99.90;;;;;;5094151;28;20027;-65
2023/05/14 03:35:38;;;;;;;28.70;21.55;;;8.10;99.90;;;;;;5095436;28;20020;-65
2023/05/14 03:38:04;;;;;;;31.35;22.85;;;8.10;99.90;;;;;;5095173;28;20111;-65
2023/05/14 03:40:30;;;;;;;27.00;22.05;;;8.10;99.90;;;;;;5095612;28;20032;-65
2023/05/14 03:42:55;;;;;;;28.52;22.73;;;8.10;99.90;;;;;;5095195;28;20032;-65
2023/05/14 03:45:21;;;;;;;29.92;23.00;;;8.10;99.90;;;;;;5094928;28;20417;-65
2023/05/14 03:47:47;;;;;;;28.25;22.42;;;8.10;99.90;;;;;;5094858;28;20028;-65
2023/05/14 03:50:12;;;;;;;29.58;22.88;;;8.10;99.90;;;;;;5095293;28;20028;-65
2023/05/14 03:52:38;;;;;;;29.17;21.85;;;8.10;99.90;;;;;;5094775;28;20028;-65
2023/05/14 03:55:04;;;;;;;30.35;23.10;;;8.10;99.90;;;;;;5094769;28;20381;-66
2023/05/14 03:57:29;;;;;;;33.88;26.05;;;8.10;99.90;;;;;;5094946;28;20031;-65
2023/05/14 03:59:55;;;;;;;31.05;24.02;;;8.20;99.90;;;;;;5094623;28;20051;-65
2023/05/14 04:02:20;;;;;;;28.75;23.30;;;8.20;99.90;;;;;;5095029;28;20036;-65
2023/05/14 04:04:46;;;;;;;31.52;24.65;;;8.20;99.90;;;;;;5094596;28;20032;-65
2023/05/14 04:07:12;;;;;;;26.67;21.52;;;8.30;99.90;;;;;;5094721;28;20039;-65
2023/05/14 04:09:37;;;;;;;29.65;22.95;;;8.30;99.90;;;;;;5094146;28;20051;-65
2023/05/14 04:12:03;;;;;;;32.75;24.30;;;8.40;99.90;;;;;;5094405;28;20067;-65
2023/05/14 04:14:29;;;;;;;30.33;24.08;;;8.50;99.90;;;;;;5094457;28;20031;-66
2023/05/14 04:16:54;;;;;;;30.98;22.23;;;8.50;99.90;;;;;;5094875;28;20466;-65
2023/05/14 04:19:20;;;;;;;27.08;21.88;;;8.60;99.90;;;;;;5094118;28;20393;-65
2023/05/14 04:21:45;;;;;;;26.52;22.23;;;8.70;99.90;;;;;;5094622;28;20434;-65
2023/05/14 04:24:11;;;;;;;28.77;24.00;;;8.80;99.90;;;;;;5094751;28;20028;-65
2023/05/14 04:26:36;;;;;;;30.55;23.20;;;8.80;99.90;;;;;;5094747;28;20061;-65
2023/05/14 04:29:02;;;;;;;33.30;23.80;;;9.00;99.90;;;;;;5094585;28;20102;-65
2023/05/14 04:31:29;;;;;;;28.92;22.92;;;9.10;99.90;;;;;;5094644;28;20047;-65
2023/05/14 04:33:54;;;;;;;29.88;24.90;;;9.20;99.90;;;;;;5094607;28;20074;-66
2023/05/14 04:36:20;;;;;;;28.25;23.05;;;9.60;99.90;;;;;;5094196;28;20040;-66
2023/05/14 04:38:45;;;;;;;27.60;20.65;;;10.20;99.90;;;;;;5094543;28;20370;-66
2023/05/14 04:41:11;;;;;;;24.13;18.17;;;10.70;99.90;;;;;;5093898;28;20020;-65
2023/05/14 04:43:37;;;;;;;18.73;15.88;;;11.00;99.90;;;;;;5094389;28;20059;-66
2023/05/14 04:46:02;;;;;;;18.75;14.93;;;11.60;99.90;;;;;;5093763;28;20028;-66
2023/05/14 04:48:28;;;;;;;17.23;14.55;;;12.30;99.90;;;;;;5094144;28;20031;-66
2023/05/14 04:50:53;;;;;;;15.23;13.15;;;13.10;9.70;;;;;;5094277;28;20343;-66
2023/05/14 04:53:19;;;;;;;19.45;13.82;;;13.80;1.00;;;;;;5094337;28;20060;-66
2023/05/14 04:55:44;;;;;;;14.85;12.57;;;13.30;1.00;;;;;;5094008;28;20027;-66
2023/05/14 04:58:10;;;;;;;17.80;14.50;;;13.00;1.00;;;;;;5094294;28;20127;-66
2023/05/14 05:00:36;;;;;;;18.95;13.43;;;13.00;1.00;;;;;;5093793;28;20440;-66
2023/05/14 05:03:02;;;;;;;16.73;14.18;;;13.00;1.00;;;;;;5094276;28;20026;-66
2023/05/14 05:05:27;;;;;;;16.45;14.25;;;12.80;1.00;;;;;;5093675;28;20037;-66
2023/05/14 05:07:53;;;;;;;18.48;14.55;;;12.70;1.00;;;;;;5093107;28;20073;-66
2023/05/14 05:10:18;;;;;;;22.30;14.35;;;12.60;1.00;;;;;;5093308;28;20052;-66
2023/05/14 05:12:44;;;;;;;20.75;15.25;;;12.50;1.00;;;;;;5094087;28;20024;-66
2023/05/14 05:15:10;;;;;;;17.13;14.77;;;12.40;1.00;;;;;;5093615;28;20032;-66
2023/05/14 05:17:36;;;;;;;19.45;14.95;;;12.20;1.00;;;;;;5093647;28;20024;-66
2023/05/14 05:20:01;;;;;;;17.85;15.95;;;12.20;12.50;;;;;;5093862;28;20051;-66
2023/05/14 05:22:27;;;;;;;24.90;16.08;;;12.10;12.20;;;;;;5094044;28;20071;-66
2023/05/14 05:24:52;;;;;;;19.05;14.32;;;12.10;13.30;;;;;;5093453;28;20481;-66
2023/05/14 05:27:19;;;;;;;18.33;15.27;;;12.20;15.00;;;;;;5094188;28;20396;-66
2023/05/14 05:29:45;;;;;;;18.75;13.93;;;12.50;9.50;;;;;;5094059;28;20024;-66
2023/05/14 05:32:11;;;;;;;17.00;13.02;;;12.90;4.20;;;;;;5093713;28;20389;-66
2023/05/14 05:34:36;;;;;;;15.13;12.75;;;13.50;1.00;;;;;;5093908;28;20020;-66
2023/05/14 05:37:02;;;;;;;13.57;11.70;;;14.40;1.00;;;;;;5093601;28;20035;-66
2023/05/14 05:39:33;;;;;;;15.55;11.13;;;15.60;1.00;;;;;;5093933;28;20111;-66
2023/05/14 05:42:00;;;;;;;14.35;11.63;;;15.60;99.90;;;;;;5093902;28;20029;-66
2023/05/14 05:44:25;;;;;;;15.68;11.73;;;15.10;99.90;;;;;;5093594;28;20035;-66
2023/05/14 05:46:51;;;;;;;17.42;11.35;;;14.90;4.80;;;;;;5093275;28;20419;-66
2023/05/14 05:49:16;;;;;;;13.95;11.65;;;14.40;99.90;;;;;;5093436;28;20386;-66
2023/05/14 05:51:42;;;;;;;14.77;11.38;;;14.80;99.90;;;;;;5093573;28;20023;-66
2023/05/14 05:54:08;;;;;;;12.07;10.82;;;14.80;99.90;;;;;;5093489;28;20461;-66
2023/05/14 05:56:33;;;;;;;12.50;11.18;;;15.00;1.00;;;;;;5094947;28;20020;-66
2023/05/14 05:58:59;;;;;;;13.95;10.65;;;14.80;90.60;;;;;;5097590;28;20104;-66
2023/05/14 06:01:25;;;;;;;12.90;11.38;;;15.10;99.90;;;;;;5097246;28;20484;-66
2023/05/14 06:03:51;;;;;;;12.82;10.88;;;15.20;94.40;;;;;;5097465;28;20103;-66
2023/05/14 06:06:17;;;;;;;11.52;10.25;;;15.70;99.90;;;;;;5097486;28;20118;-66
2023/05/14 06:08:42;;;;;;;11.75;9.77;;;16.00;1.00;;;;;;5096831;28;20119;-66
2023/05/14 06:11:08;;;;;;;10.57;9.63;;;16.80;99.90;;;;;;5096353;28;20044;-66
2023/05/14 06:13:33;;;;;;;10.82;8.93;;;17.00;1.00;;;;;;5096384;28;20021;-67
2023/05/14 06:15:59;;;;;;;13.52;9.57;;;17.70;99.90;;;;;;5097226;28;20028;-67
2023/05/14 06:18:24;;;;;;;9.23;8.35;;;18.10;99.90;;;;;;5097207;28;20103;-67
2023/05/14 06:20:50;;;;;;;10.20;8.10;;;18.90;1.00;;;;;;5096889;28;20394;-67
2023/05/14 06:23:15;;;;;;;8.32;7.55;;;19.20;99.90;;;;;;5097275;28;20051;-67
2023/05/14 06:25:41;;;;;;;9.48;7.38;;;19.90;1.00;;;;;;5096482;28;20054;-67
2023/05/14 06:28:06;;;;;;;8.10;7.22;;;20.20;1.00;;;;;;5096683;28;20017;-67
2023/05/14 06:30:32;;;;;;;12.00;7.20;;;21.40;99.90;;;;;;5096906;28;20024;-67
2023/05/14 06:32:57;;;;;;;12.68;7.25;;;21.90;9.80;;;;;;5096696;28;20110;-67
2023/05/14 06:35:23;;;;;;;8.52;7.15;;;21.50;12.90;;;;;;5096795;28;20462;-67
2023/05/14 06:37:48;;;;;;;8.25;6.72;;;22.10;1.00;;;;;;5096855;28;20028;-67
2023/05/14 06:40:14;;;;;;;7.90;6.43;;;22.10;1.00;;;;;;5096766;28;20070;-68
2023/05/14 06:42:40;;;;;;;9.77;6.75;;;22.60;1.00;;;;;;5096211;28;20020;-67
2023/05/14 06:45:06;;;;;;;7.47;6.55;;;23.30;1.00;;;;;;5096210;28;20474;-67
2023/05/14 06:47:32;;;;;;;6.95;6.10;;;23.60;99.90;;;;;;5096563;28;20043;-67
2023/05/14 06:49:58;;;;;;;7.90;6.28;;;23.60;99.90;;;;;;5095376;28;20031;-67
2023/05/14 06:52:24;;;;;;;7.47;6.78;;;24.30;99.90;;;;;;5096761;28;20358;-67
2023/05/14 06:54:50;;;;;;;8.43;6.10;;;24.20;99.90;;;;;;5095995;28;20028;-67
2023/05/14 06:57:15;;;;;;;6.88;6.18;;;24.20;99.90;;;;;;5096226;28;20027;-67
2023/05/14 06:59:41;;;;;;;7.20;6.50;;;24.70;99.90;;;;;;5096387;28;20061;-67
2023/05/14 07:02:06;;;;;;;6.97;6.25;;;24.40;99.90;;;;;;5095802;28;20038;-67
2023/05/14 07:04:32;;;;;;;6.85;6.15;;;24.80;99.90;;;;;;5096292;28;20050;-67
2023/05/14 07:06:58;;;;;;;7.30;6.60;;;24.60;99.90;;;;;;5095200;28;20488;-67
2023/05/14 07:09:23;;;;;;;6.93;6.30;;;23.60;99.90;;;;;;5095354;28;20052;-67
2023/05/14 07:11:49;;;;;;;6.97;6.35;;;23.50;99.90;;;;;;5095880;28;20122;-67
2023/05/14 07:14:14;;;;;;;7.10;5.68;;;24.40;99.90;;;;;;5096227;28;20339;-67
2023/05/14 07:16:41;;;;;;;6.85;6.15;;;24.10;99.90;;;;;;5095535;28;20024;-67
2023/05/14 07:19:06;;;;;;;6.93;6.32;;;24.10;99.90;;;;;;5096252;28;20024;-67
2023/05/14 07:21:32;;;;;;;6.82;5.57;;;25.10;99.90;;;;;;5095899;28;20359;-67
2023/05/14 07:23:57;;;;;;;6.45;5.85;;;25.80;99.90;;;;;;5096005;28;20447;-67
2023/05/14 07:26:23;;;;;;;6.80;6.07;;;25.90;99.90;;;;;;5095867;28;20020;-67
2023/05/14 07:28:49;;;;;;;6.00;5.50;;;25.30;99.90;;;;;;5095860;28;20020;-67
2023/05/14 07:31:14;;;;;;;7.60;5.30;;;25.00;1.00;;;;;;5095778;28;20028;-67
2023/05/14 07:33:40;;;;;;;5.72;5.13;;;25.60;99.90;;;;;;5095650;28;20020;-67
2023/05/14 07:36:06;;;;;;;5.72;5.22;;;25.50;99.90;;;;;;5095149;28;20423;-67
2023/05/14 07:38:31;;;;;;;7.03;5.15;;;25.10;99.90;;;;;;5095117;28;20024;-67
2023/05/14 07:40:57;;;;;;;5.28;4.85;;;26.40;99.90;;;;;;5095620;28;20369;-67
2023/05/14 07:43:22;;;;;;;4.93;4.53;;;27.00;99.90;;;;;;5095285;28;20081;-67
2023/05/14 07:45:48;;;;;;;6.28;3.80;;;27.40;1.00;;;;;;5095429;28;20347;-67
2023/05/14 07:48:14;;;;;;;6.70;4.60;;;27.70;99.90;;;;;;5095195;28;20035;-67
2023/05/14 07:50:39;;;;;;;4.45;4.05;;;26.40;99.90;;;;;;5094882;28;20020;-67
2023/05/14 07:53:05;;;;;;;5.00;4.35;;;25.20;99.90;;;;;;5095055;28;20465;-68
2023/05/14 07:55:31;;;;;;;4.45;4.05;;;25.70;99.90;;;;;;5095567;28;20424;-67
2023/05/14 07:57:56;;;;;;;4.72;4.32;;;26.10;99.90;;;;;;5095417;28;20020;-67
2023/05/14 08:00:22;;;;;;;4.72;4.32;;;26.30;99.90;;;;;;5095246;28;20393;-67
2023/05/14 08:02:47;;;;;;;5.13;4.07;;;26.00;99.90;;;;;;5094625;28;20028;-67
2023/05/14 08:05:13;;;;;;;4.68;4.28;;;25.10;99.90;;;;;;5095111;28;20021;-67
2023/05/14 08:07:39;;;;;;;4.30;3.90;;;25.40;99.90;;;;;;5094547;28;20031;-67
2023/05/14 08:10:06;;;;;;;5.43;3.92;;;26.20;99.90;;;;;;5094385;28;20055;-68
2023/05/14 08:12:32;;;;;;;4.75;3.97;;;26.10;99.90;;;;;;5094621;28;20534;-67
2023/05/14 08:14:57;;;;;;;4.20;3.67;;;25.70;99.90;;;;;;5094425;28;20095;-67
2023/05/14 08:17:23;;;;;;;3.75;3.47;;;26.00;99.90;;;;;;5094189;28;20020;-68
2023/05/14 08:19:48;;;;;;;5.20;3.90;;;26.40;99.90;;;;;;5094431;28;20028;-67
2023/05/14 08:22:14;;;;;;;4.68;3.50;;;26.70;99.90;;;;;;5094726;28;20036;-67
2023/05/14 08:24:41;;;;;;;4.63;3.72;;;26.70;99.90;;;;;;5094521;28;20027;-67
2023/05/14 08:27:07;;;;;;;3.75;3.45;;;26.70;99.90;;;;;;5094711;28;20028;-67
2023/05/14 08:29:33;;;;;;;3.95;3.20;;;26.90;99.90;;;;;;5094080;28;20032;-67
2023/05/14 08:31:59;;;;;;;3.88;3.47;;;27.30;99.90;;;;;;5094280;28;20523;-67
2023/05/14 08:34:25;;;;;;;4.22;3.72;;;27.40;99.90;;;;;;5093829;28;20020;-67
2023/05/14 08:36:50;;;;;;;3.08;2.85;;;27.90;99.90;;;;;;5094083;28;20035;-67
2023/05/14 08:39:16;;;;;;;3.40;3.13;;;27.20;99.90;;;;;;5094552;28;20028;-67
2023/05/14 08:41:42;;;;;;;3.58;3.28;;;27.30;99.90;;;;;;5094708;28;20063;-68
2023/05/14 08:44:34;;;;;;;3.15;2.85;;;27.00;99.90;;;;;;5094449;28;20538;-66
2023/05/14 08:47:00;;;;;;;4.35;3.00;;;26.30;99.90;;;;;;5094449;28;20020;-65
2023/05/14 08:49:40;;;;;;;3.63;2.72;;;26.60;99.90;;;;;;5094279;28;20080;-68
2023/05/14 08:52:07;;;;;;;3.80;3.03;;;27.60;99.90;;;;;;5094421;28;20024;-66
2023/05/14 08:54:33;;;;;;;3.38;3.05;;;27.90;99.90;;;;;;5094088;28;20051;-66
2023/05/14 08:56:59;;;;;;;6.03;3.50;;;27.60;99.90;;;;;;5093658;28;20020;-65
2023/05/14 08:59:24;;;;;;;3.53;3.22;;;27.20;99.90;;;;;;5093579;28;20043;-66
2023/05/14 09:01:53;;;;;;;4.13;3.72;;;26.90;99.90;;;;;;5093662;28;20024;-66
2023/05/14 09:04:21;;;;;;;3.95;3.10;;;25.60;99.90;;;;;;5093724;28;20055;-67
2023/05/14 09:06:49;;;;;;;4.18;3.78;;;26.60;99.90;;;;;;5093881;28;20569;-66
2023/05/14 09:09:15;;;;;;;3.92;3.08;;;26.00;99.90;;;;;;5092335;28;20040;-67
2023/05/14 09:11:41;;;;;;;3.00;2.80;;;26.80;99.90;;;;;;5093314;28;20039;-68
2023/05/14 09:14:07;;;;;;;2.83;2.63;;;27.50;99.90;;;;;;5094131;28;20020;-68
2023/05/14 09:16:35;;;;;;;2.80;2.60;;;27.60;99.90;;;;;;5094089;28;20066;-65
2023/05/14 09:19:02;;;;;;;3.33;2.60;;;28.00;99.90;;;;;;5093556;28;20024;-68
2023/05/14 09:21:27;;;;;;;2.50;2.30;;;27.60;99.90;;;;;;5094064;28;20055;-68
2023/05/14 09:23:56;;;;;;;4.32;2.90;;;27.70;99.90;;;;;;5094045;28;20478;-65
2023/05/14 09:26:24;;;;;;;3.03;2.83;;;27.90;99.90;;;;;;5093650;28;20070;-66
2023/05/14 09:28:55;;;;;;;3.00;2.80;;;28.40;99.90;;;;;;5092817;28;20031;-66
2023/05/14 09:31:20;;;;;;;2.60;2.40;;;28.00;99.90;;;;;;5093421;28;20051;-65
2023/05/14 09:33:50;;;;;;;2.90;2.55;;;27.90;99.90;;;;;;5097489;28;20481;-65
2023/05/14 09:36:16;;;;;;;3.03;2.72;;;27.20;99.90;;;;;;5098018;28;20028;-66
2023/05/14 09:38:42;;;;;;;3.95;3.05;;;28.10;99.90;;;;;;5097515;28;20020;-66
2023/05/14 09:41:08;;;;;;;3.85;2.85;;;28.00;1.00;;;;;;5097909;28;20028;-66
2023/05/14 09:43:33;;;;;;;3.00;2.60;;;27.50;1.00;;;;;;5097582;28;20077;-65
2023/05/14 09:45:59;;;;;;;2.70;2.50;;;27.30;1.00;;;;;;5097853;28;20028;-65
2023/05/14 09:48:25;;;;;;;2.40;2.30;;;27.70;1.00;;;;;;5097796;28;20024;-65
2023/05/14 09:50:51;;;;;;;2.33;2.00;;;27.00;99.90;;;;;;5097210;28;20024;-66
2023/05/14 09:53:17;;;;;;;2.33;2.15;;;26.80;99.90;;;;;;5097915;28;20475;-66
2023/05/14 09:55:44;;;;;;;2.42;2.25;;;26.80;99.90;;;;;;5097456;28;20060;-65
2023/05/14 09:58:09;;;;;;;2.85;2.50;;;27.40;99.90;;;;;;5097094;28;20024;-65
2023/05/14 10:00:36;;;;;;;2.50;2.30;;;26.60;99.90;;;;;;5097195;28;20047;-65
2023/05/14 10:03:05;;;;;;;2.88;2.40;;;27.10;99.90;;;;;;5097089;28;20040;-65
2023/05/14 10:05:35;;;;;;;2.50;2.30;;;27.00;99.90;;;;;;5095707;28;20032;-67
2023/05/14 10:08:08;;;;;;;3.05;2.20;;;27.50;99.90;;;;;;5097186;28;20039;-66
2023/05/14 10:10:36;;;;;;;2.17;1.90;;;27.20;99.90;;;;;;5096459;28;20048;-66
2023/05/14 10:13:06;;;;;;;3.38;2.50;;;26.40;99.90;;;;;;5097318;28;20462;-66
2023/05/14 10:15:37;;;;;;;2.88;2.67;;;27.20;99.90;;;;;;5096755;28;20051;-66
2023/05/14 10:18:11;;;;;;;2.63;2.40;;;27.20;99.90;;;;;;5096802;28;20020;-66
2023/05/14 10:20:38;;;;;;;2.35;2.20;;;27.30;1.00;;;;;;5096636;28;20134;-66
2023/05/14 10:23:06;;;;;;;3.28;2.63;;;26.70;1.00;;;;;;5095877;28;20035;-66
2023/05/14 10:25:33;;;;;;;2.80;2.47;;;27.40;1.00;;;;;;5096819;28;20028;-66
2023/05/14 10:27:59;;;;;;;3.50;3.20;;;27.10;1.00;;;;;;5096469;28;20020;-66
2023/05/14 10:30:25;;;;;;;3.63;3.33;;;25.70;99.90;;;;;;5096528;28;20031;-66
2023/05/14 10:33:12;;;;;;;4.15;3.70;;;24.50;99.90;;;;;;5095993;28;20042;-66
2023/05/14 10:36:05;;;;;;;6.55;3.47;;;25.40;99.90;;;;;;5096840;28;20366;-66
2023/05/14 10:38:32;;;;;;;;;;;26.40;1.00;;;;;;5096853;28;20024;-65
2023/05/14 10:41:00;;;;;;;3.72;3.30;;;26.00;1.00;;;;;;5096501;28;19904;-65
2023/05/14 10:43:29;;;;;;;3.70;3.40;;;25.10;1.00;;;;;;5095644;28;20035;-65
2023/05/14 10:45:56;;;;;;;4.22;3.90;;;24.20;1.00;;;;;;5096091;28;20070;-67
2023/05/14 10:48:21;;;;;;;3.70;3.40;;;23.40;99.90;;;;;;5095491;28;20118;-67
2023/05/14 10:50:49;;;;;;;3.83;3.50;;;23.70;99.90;;;;;;5094755;28;20216;-67
2023/05/14 10:53:15;;;;;;;4.35;3.30;;;23.20;99.90;;;;;;5096523;28;20039;-67
2023/05/14 10:55:42;;;;;;;3.40;3.08;;;23.20;99.90;;;;;;5096269;28;20393;-67
2023/05/14 10:58:09;;;;;;;3.47;3.17;;;23.10;1.00;;;;;;5094943;28;20028;-67
2023/05/14 11:00:36;;;;;;;3.80;3.50;;;22.70;1.00;;;;;;5095839;28;20020;-67
2023/05/14 11:03:04;;;;;;;3.97;3.60;;;22.20;99.90;;;;;;5096494;28;20027;-67
2023/05/14 11:05:31;;;;;;;3.50;3.20;;;22.00;1.00;;;;;;5094851;28;20067;-67
2023/05/14 11:07:57;;;;;;;3.20;3.00;;;22.00;1.00;;;;;;5095085;28;20077;-67
2023/05/14 11:10:24;;;;;;;3.25;3.05;;;22.70;1.00;;;;;;5095322;28;20081;-67
2023/05/14 11:12:51;;;;;;;3.28;3.08;;;23.70;1.00;;;;;;5095918;28;20024;-67
2023/05/14 11:15:22;;;;;;;3.75;3.45;;;23.70;1.00;;;;;;5095598;28;20020;-67
2023/05/14 11:17:49;;;;;;;3.67;3.30;;;23.80;99.90;;;;;;5096121;28;20107;-67
2023/05/14 11:20:15;;;;;;;3.28;3.08;;;23.00;99.90;;;;;;5096033;28;20024;-67
2023/05/14 11:22:42;;;;;;;4.32;3.17;;;23.10;1.00;;;;;;5095395;28;20066;-67
2023/05/14 11:25:09;;;;;;;4.32;2.78;;;23.20;99.90;;;;;;5095931;28;20560;-67
2023/05/14 11:27:37;;;;;;;4.63;2.83;;;23.50;99.90;;;;;;5095826;28;20028;-67
2023/05/14 11:30:04;;;;;;;3.00;2.78;;;24.20;99.90;;;;;;5095817;28;20077;-67
2023/05/14 11:32:31;;;;;;;3.00;2.80;;;24.00;99.90;;;;;;5095478;28;20031;-67
2023/05/14 11:34:57;;;;;;;2.67;2.47;;;24.10;99.90;;;;;;5095475;28;20035;-67
2023/05/14 11:37:22;;;;;;;3.08;2.83;;;24.20;99.90;;;;;;5095719;28;20016;-67
2023/05/14 11:39:51;;;;;;;2.58;2.30;;;24.10;99.90;;;;;;5095061;28;20031;-67
2023/05/14 11:42:18;;;;;;;2.70;2.50;;;23.90;99.90;;;;;;5095377;28;20529;-66
2023/05/14 11:44:47;;;;;;;3.10;2.80;;;23.80;99.90;;;;;;5093855;28;20046;-67
2023/05/14 11:47:13;;;;;;;2.80;2.60;;;23.90;99.90;;;;;;5094302;28;20031;-66
2023/05/14 11:49:39;;;;;;;3.13;2.83;;;23.60;99.90;;;;;;5094736;28;20020;-67
2023/05/14 11:52:06;;;;;;;3.28;2.83;;;23.50;99.90;;;;;;5095627;28;20060;-67
2023/05/14 11:54:33;;;;;;;2.90;2.47;;;23.30;99.90;;;;;;5093113;28;20024;-67
2023/05/14 11:57:06;;;;;;;3.17;2.85;;;23.00;99.90;;;;;;5093909;28;20024;-67
2023/05/14 11:59:32;;;;;;;2.50;2.30;;;23.10;99.90;;;;;;5094273;28;20052;-67
2023/05/14 12:01:58;;;;;;;3.40;2.63;;;23.40;99.90;;;;;;5094948;28;20032;-67
2023/05/14 12:04:24;;;;;;;2.50;2.30;;;23.00;99.90;;;;;;5095049;28;20020;-67
2023/05/14 12:06:51;;;;;;;2.90;2.70;;;22.80;99.90;;;;;;5094575;28;20024;-67
2023/05/14 12:09:18;;;;;;;3.20;2.22;;;22.60;99.90;;;;;;5093096;28;20048;-67
2023/05/14 12:11:45;;;;;;;4.43;1.95;;;22.30;99.90;;;;;;5095100;28;20161;-67
2023/05/14 12:14:15;;;;;;;2.70;2.15;;;22.70;99.90;;;;;;5093290;28;20020;-67
2023/05/14 12:16:42;;;;;;;3.88;1.85;;;23.10;99.90;;;;;;5094338;28;20017;-67
2023/05/14 12:19:10;;;;;;;2.50;2.30;;;23.70;99.90;;;;;;5094914;28;20028;-67
2023/05/14 12:21:37;;;;;;;2.53;2.10;;;23.30;99.90;;;;;;5094864;28;20111;-67
2023/05/14 12:24:03;;;;;;;2.35;2.15;;;23.20;99.90;;;;;;5094292;28;20528;-67
2023/05/14 12:26:32;;;;;;;2.38;2.17;;;23.00;99.90;;;;;;5093072;28;20024;-67
2023/05/14 12:29:00;;;;;;;2.08;1.95;;;23.30;99.90;;;;;;5094182;28;20020;-67
2023/05/14 12:31:28;;;;;;;2.08;1.90;;;23.70;99.90;;;;;;5094225;28;20036;-67
2023/05/14 12:33:54;;;;;;;4.15;2.10;;;23.80;99.90;;;;;;5094109;28;20028;-67
2023/05/14 12:36:19;;;;;;;2.33;2.03;;;23.80;99.90;;;;;;5094111;28;20020;-67
2023/05/14 12:38:45;;;;;;;3.45;2.00;;;23.70;99.90;;;;;;5094257;28;20469;-67
2023/05/14 12:41:11;;;;;;;3.50;1.75;;;23.40;99.90;;;;;;5094429;28;20039;-67
2023/05/14 12:43:36;;;;;;;2.58;2.00;;;23.40;99.90;;;;;;5094174;28;20080;-66